sensor_id;sensor_type;location;lat;lon;timestamp;P1;durP1;ratioP1;P2;durP2;ratioP2
64387;SDS011;50709;52.648;4.764;2023-02-17T00:00:03;8.15;;;3.40;;
64387;SDS011;50709;52.648;4.764;2023-02-17T00:02:29;14.30;;;4.95;;
64387;SDS011;50709;52.648;4.764;2023-02-17T00:04:55;13.85;;;5.10;;
64387;SDS011;50709;52.648;4.764;2023-02-17T00:07:20;14.20;;;5.07;;
64387;SDS011;50709;52.648;4.764;2023-02-17T00:09:46;11.75;;;4.57;;
64387;SDS011;50709;52.648;4.764;2023-02-17T00:12:11;15.38;;;4.38;;
64387;SDS011;50709;52.648;4.764;2023-02-17T00:14:39;18.50;;;5.63;;
64387;SDS011;50709;52.648;4.764;2023-02-17T00:17:05;10.35;;;4.35;;
64387;SDS011;50709;52.648;4.764;2023-02-17T00:19:31;11.77;;;4.30;;
64387;SDS011;50709;52.648;4.764;2023-02-17T00:21:59;15.73;;;5.30;;
64387;SDS011;50709;52.648;4.764;2023-02-17T00:24:27;20.88;;;5.72;;
64387;SDS011;50709;52.648;4.764;2023-02-17T00:26:54;12.20;;;5.18;;
64387;SDS011;50709;52.648;4.764;2023-02-17T00:29:20;14.18;;;5.13;;
64387;SDS011;50709;52.648;4.764;2023-02-17T00:31:45;19.00;;;6.43;;
64387;SDS011;50709;52.648;4.764;2023-02-17T00:34:11;15.57;;;5.70;;
64387;SDS011;50709;52.648;4.764;2023-02-17T00:36:37;13.48;;;5.00;;
64387;SDS011;50709;52.648;4.764;2023-02-17T00:39:03;14.05;;;5.00;;
64387;SDS011;50709;52.648;4.764;2023-02-17T00:41:29;19.08;;;6.38;;
64387;SDS011;50709;52.648;4.764;2023-02-17T00:43:55;19.02;;;7.05;;
64387;SDS011;50709;52.648;4.764;2023-02-17T00:46:20;19.70;;;6.45;;
64387;SDS011;50709;52.648;4.764;2023-02-17T00:48:47;14.68;;;6.10;;
64387;SDS011;50709;52.648;4.764;2023-02-17T00:51:13;17.10;;;7.10;;
64387;SDS011;50709;52.648;4.764;2023-02-17T00:53:40;15.35;;;6.72;;
64387;SDS011;50709;52.648;4.764;2023-02-17T00:56:05;15.57;;;6.10;;
64387;SDS011;50709;52.648;4.764;2023-02-17T00:58:31;18.88;;;6.28;;
64387;SDS011;50709;52.648;4.764;2023-02-17T01:00:57;18.10;;;6.60;;
64387;SDS011;50709;52.648;4.764;2023-02-17T01:03:23;13.75;;;5.30;;
64387;SDS011;50709;52.648;4.764;2023-02-17T01:05:49;16.90;;;5.95;;
64387;SDS011;50709;52.648;4.764;2023-02-17T01:08:16;13.63;;;5.75;;
64387;SDS011;50709;52.648;4.764;2023-02-17T01:10:42;22.08;;;6.80;;
64387;SDS011;50709;52.648;4.764;2023-02-17T01:13:10;23.75;;;6.78;;
64387;SDS011;50709;52.648;4.764;2023-02-17T01:15:36;17.55;;;6.97;;
64387;SDS011;50709;52.648;4.764;2023-02-17T01:18:07;19.20;;;7.88;;
64387;SDS011;50709;52.648;4.764;2023-02-17T01:20:33;16.45;;;8.10;;
64387;SDS011;50709;52.648;4.764;2023-02-17T01:23:00;22.55;;;7.07;;
64387;SDS011;50709;52.648;4.764;2023-02-17T01:25:25;23.90;;;8.40;;
64387;SDS011;50709;52.648;4.764;2023-02-17T01:27:51;19.92;;;8.00;;
64387;SDS011;50709;52.648;4.764;2023-02-17T01:30:16;20.88;;;8.45;;
64387;SDS011;50709;52.648;4.764;2023-02-17T01:32:42;20.52;;;7.47;;
64387;SDS011;50709;52.648;4.764;2023-02-17T01:35:07;22.05;;;6.20;;
64387;SDS011;50709;52.648;4.764;2023-02-17T01:37:33;21.85;;;7.28;;
64387;SDS011;50709;52.648;4.764;2023-02-17T01:39:58;16.77;;;6.80;;
64387;SDS011;50709;52.648;4.764;2023-02-17T01:42:24;23.35;;;9.15;;
64387;SDS011;50709;52.648;4.764;2023-02-17T01:47:43;20.13;;;9.02;;
64387;SDS011;50709;52.648;4.764;2023-02-17T01:50:10;16.88;;;6.07;;
64387;SDS011;50709;52.648;4.764;2023-02-17T01:52:35;26.45;;;9.80;;
64387;SDS011;50709;52.648;4.764;2023-02-17T01:55:03;23.10;;;9.65;;
64387;SDS011;50709;52.648;4.764;2023-02-17T01:57:32;23.90;;;10.25;;
64387;SDS011;50709;52.648;4.764;2023-02-17T02:00:03;23.83;;;8.02;;
64387;SDS011;50709;52.648;4.764;2023-02-17T02:02:31;25.73;;;10.55;;
64387;SDS011;50709;52.648;4.764;2023-02-17T02:04:57;18.50;;;8.65;;
64387;SDS011;50709;52.648;4.764;2023-02-17T02:07:27;18.52;;;8.07;;
64387;SDS011;50709;52.648;4.764;2023-02-17T02:09:59;26.42;;;9.88;;
64387;SDS011;50709;52.648;4.764;2023-02-17T02:12:26;23.23;;;9.15;;
64387;SDS011;50709;52.648;4.764;2023-02-17T02:14:55;18.88;;;8.82;;
64387;SDS011;50709;52.648;4.764;2023-02-17T02:34:14;21.67;;;9.25;;
64387;SDS011;50709;52.648;4.764;2023-02-17T02:36:48;20.17;;;9.40;;
64387;SDS011;50709;52.648;4.764;2023-02-17T02:39:34;20.85;;;9.27;;
64387;SDS011;50709;52.648;4.764;2023-02-17T02:44:31;22.88;;;10.07;;
64387;SDS011;50709;52.648;4.764;2023-02-17T02:46:57;23.65;;;8.80;;
64387;SDS011;50709;52.648;4.764;2023-02-17T02:49:25;25.77;;;10.95;;
64387;SDS011;50709;52.648;4.764;2023-02-17T02:57:50;24.85;;;8.90;;
64387;SDS011;50709;52.648;4.764;2023-02-17T03:00:24;19.90;;;7.72;;
64387;SDS011;50709;52.648;4.764;2023-02-17T03:02:56;16.75;;;8.52;;
64387;SDS011;50709;52.648;4.764;2023-02-17T03:05:31;25.80;;;9.07;;
64387;SDS011;50709;52.648;4.764;2023-02-17T03:08:08;19.48;;;8.88;;
64387;SDS011;50709;52.648;4.764;2023-02-17T03:10:44;24.08;;;9.10;;
64387;SDS011;50709;52.648;4.764;2023-02-17T03:13:11;24.98;;;8.45;;
64387;SDS011;50709;52.648;4.764;2023-02-17T03:15:36;20.70;;;8.30;;
64387;SDS011;50709;52.648;4.764;2023-02-17T03:18:02;23.75;;;9.70;;
64387;SDS011;50709;52.648;4.764;2023-02-17T03:20:29;22.80;;;9.50;;
64387;SDS011;50709;52.648;4.764;2023-02-17T03:22:59;26.40;;;9.77;;
64387;SDS011;50709;52.648;4.764;2023-02-17T03:25:25;20.95;;;8.35;;
64387;SDS011;50709;52.648;4.764;2023-02-17T03:27:50;21.15;;;8.63;;
64387;SDS011;50709;52.648;4.764;2023-02-17T03:30:16;24.08;;;8.23;;
64387;SDS011;50709;52.648;4.764;2023-02-17T03:32:41;27.83;;;8.60;;
64387;SDS011;50709;52.648;4.764;2023-02-17T03:35:07;18.33;;;8.52;;
64387;SDS011;50709;52.648;4.764;2023-02-17T03:37:33;15.52;;;7.50;;
64387;SDS011;50709;52.648;4.764;2023-02-17T03:39:59;22.05;;;8.15;;
64387;SDS011;50709;52.648;4.764;2023-02-17T03:42:25;28.42;;;9.52;;
64387;SDS011;50709;52.648;4.764;2023-02-17T03:44:50;22.77;;;7.60;;
64387;SDS011;50709;52.648;4.764;2023-02-17T03:47:16;18.85;;;7.90;;
64387;SDS011;50709;52.648;4.764;2023-02-17T03:49:41;21.73;;;7.65;;
64387;SDS011;50709;52.648;4.764;2023-02-17T03:52:07;22.35;;;8.88;;
64387;SDS011;50709;52.648;4.764;2023-02-17T03:54:32;19.33;;;7.57;;
64387;SDS011;50709;52.648;4.764;2023-02-17T03:56:58;19.83;;;8.10;;
64387;SDS011;50709;52.648;4.764;2023-02-17T03:59:25;22.13;;;8.43;;
64387;SDS011;50709;52.648;4.764;2023-02-17T04:01:50;21.63;;;7.53;;
64387;SDS011;50709;52.648;4.764;2023-02-17T04:04:36;17.52;;;7.70;;
64387;SDS011;50709;52.648;4.764;2023-02-17T04:07:03;19.52;;;8.13;;
64387;SDS011;50709;52.648;4.764;2023-02-17T04:09:28;21.73;;;7.22;;
64387;SDS011;50709;52.648;4.764;2023-02-17T04:11:54;22.17;;;7.53;;
64387;SDS011;50709;52.648;4.764;2023-02-17T04:14:19;21.30;;;7.03;;
64387;SDS011;50709;52.648;4.764;2023-02-17T04:16:44;16.77;;;6.85;;
64387;SDS011;50709;52.648;4.764;2023-02-17T04:19:10;22.40;;;8.82;;
64387;SDS011;50709;52.648;4.764;2023-02-17T04:21:35;17.80;;;8.52;;
64387;SDS011;50709;52.648;4.764;2023-02-17T04:24:01;20.25;;;7.35;;
64387;SDS011;50709;52.648;4.764;2023-02-17T04:26:27;14.32;;;7.15;;
64387;SDS011;50709;52.648;4.764;2023-02-17T04:28:53;12.45;;;5.78;;
64387;SDS011;50709;52.648;4.764;2023-02-17T04:31:19;26.83;;;8.20;;
64387;SDS011;50709;52.648;4.764;2023-02-17T04:33:44;22.05;;;7.78;;
64387;SDS011;50709;52.648;4.764;2023-02-17T04:36:09;17.10;;;6.95;;
64387;SDS011;50709;52.648;4.764;2023-02-17T04:38:35;19.20;;;8.07;;
64387;SDS011;50709;52.648;4.764;2023-02-17T04:41:01;17.58;;;6.35;;
64387;SDS011;50709;52.648;4.764;2023-02-17T04:43:28;24.77;;;7.93;;
64387;SDS011;50709;52.648;4.764;2023-02-17T04:45:53;24.02;;;8.57;;
64387;SDS011;50709;52.648;4.764;2023-02-17T04:48:19;11.65;;;4.85;;
64387;SDS011;50709;52.648;4.764;2023-02-17T04:50:45;21.75;;;8.73;;
64387;SDS011;50709;52.648;4.764;2023-02-17T04:53:10;13.35;;;5.90;;
64387;SDS011;50709;52.648;4.764;2023-02-17T04:55:38;20.08;;;7.90;;
64387;SDS011;50709;52.648;4.764;2023-02-17T04:58:03;31.60;;;8.35;;
64387;SDS011;50709;52.648;4.764;2023-02-17T05:00:28;18.60;;;6.90;;
64387;SDS011;50709;52.648;4.764;2023-02-17T05:02:54;24.52;;;7.63;;
64387;SDS011;50709;52.648;4.764;2023-02-17T05:05:20;17.67;;;7.38;;
64387;SDS011;50709;52.648;4.764;2023-02-17T05:07:45;21.00;;;7.80;;
64387;SDS011;50709;52.648;4.764;2023-02-17T05:10:11;21.50;;;7.13;;
64387;SDS011;50709;52.648;4.764;2023-02-17T05:12:38;24.10;;;7.55;;
64387;SDS011;50709;52.648;4.764;2023-02-17T05:15:04;18.95;;;7.18;;
64387;SDS011;50709;52.648;4.764;2023-02-17T05:17:30;19.48;;;7.20;;
64387;SDS011;50709;52.648;4.764;2023-02-17T05:19:56;24.08;;;9.10;;
64387;SDS011;50709;52.648;4.764;2023-02-17T05:22:22;21.08;;;7.35;;
64387;SDS011;50709;52.648;4.764;2023-02-17T05:24:47;22.10;;;7.38;;
64387;SDS011;50709;52.648;4.764;2023-02-17T05:27:13;20.45;;;7.60;;
64387;SDS011;50709;52.648;4.764;2023-02-17T05:29:38;19.23;;;8.27;;
64387;SDS011;50709;52.648;4.764;2023-02-17T05:32:03;20.45;;;6.35;;
64387;SDS011;50709;52.648;4.764;2023-02-17T05:34:29;17.80;;;6.72;;
64387;SDS011;50709;52.648;4.764;2023-02-17T05:36:54;29.00;;;8.90;;
64387;SDS011;50709;52.648;4.764;2023-02-17T05:39:20;21.30;;;8.02;;
64387;SDS011;50709;52.648;4.764;2023-02-17T05:41:45;29.70;;;9.18;;
64387;SDS011;50709;52.648;4.764;2023-02-17T05:44:11;27.55;;;9.63;;
64387;SDS011;50709;52.648;4.764;2023-02-17T05:46:36;28.75;;;8.38;;
64387;SDS011;50709;52.648;4.764;2023-02-17T05:49:02;21.45;;;8.30;;
64387;SDS011;50709;52.648;4.764;2023-02-17T05:51:27;26.88;;;9.85;;
64387;SDS011;50709;52.648;4.764;2023-02-17T05:53:52;27.40;;;9.93;;
64387;SDS011;50709;52.648;4.764;2023-02-17T05:56:18;24.48;;;9.38;;
64387;SDS011;50709;52.648;4.764;2023-02-17T05:58:43;22.95;;;9.82;;
64387;SDS011;50709;52.648;4.764;2023-02-17T06:01:09;24.00;;;8.88;;
64387;SDS011;50709;52.648;4.764;2023-02-17T06:03:36;25.05;;;8.02;;
64387;SDS011;50709;52.648;4.764;2023-02-17T06:06:02;22.23;;;8.48;;
64387;SDS011;50709;52.648;4.764;2023-02-17T06:08:28;23.98;;;7.80;;
64387;SDS011;50709;52.648;4.764;2023-02-17T06:10:54;22.83;;;10.32;;
64387;SDS011;50709;52.648;4.764;2023-02-17T06:13:20;21.42;;;8.02;;
64387;SDS011;50709;52.648;4.764;2023-02-17T06:15:45;21.33;;;8.23;;
64387;SDS011;50709;52.648;4.764;2023-02-17T06:18:11;25.92;;;10.07;;
64387;SDS011;50709;52.648;4.764;2023-02-17T06:20:37;20.88;;;8.25;;
64387;SDS011;50709;52.648;4.764;2023-02-17T06:23:03;28.05;;;11.57;;
64387;SDS011;50709;52.648;4.764;2023-02-17T06:25:28;16.70;;;9.25;;
64387;SDS011;50709;52.648;4.764;2023-02-17T06:27:53;28.30;;;11.63;;
64387;SDS011;50709;52.648;4.764;2023-02-17T06:30:19;31.52;;;12.38;;
64387;SDS011;50709;52.648;4.764;2023-02-17T06:32:45;25.50;;;9.38;;
64387;SDS011;50709;52.648;4.764;2023-02-17T06:35:11;16.50;;;5.10;;
64387;SDS011;50709;52.648;4.764;2023-02-17T06:37:37;18.67;;;7.47;;
64387;SDS011;50709;52.648;4.764;2023-02-17T06:40:02;17.55;;;5.88;;
64387;SDS011;50709;52.648;4.764;2023-02-17T06:42:28;41.25;;;19.75;;
64387;SDS011;50709;52.648;4.764;2023-02-17T06:44:54;18.65;;;7.22;;
64387;SDS011;50709;52.648;4.764;2023-02-17T06:47:19;16.88;;;6.32;;
64387;SDS011;50709;52.648;4.764;2023-02-17T06:49:45;19.23;;;6.57;;
64387;SDS011;50709;52.648;4.764;2023-02-17T06:52:10;17.70;;;8.45;;
64387;SDS011;50709;52.648;4.764;2023-02-17T06:54:35;24.02;;;9.80;;
64387;SDS011;50709;52.648;4.764;2023-02-17T06:57:01;25.75;;;7.28;;
64387;SDS011;50709;52.648;4.764;2023-02-17T06:59:26;20.00;;;6.97;;
64387;SDS011;50709;52.648;4.764;2023-02-17T07:01:52;22.85;;;10.75;;
64387;SDS011;50709;52.648;4.764;2023-02-17T07:04:17;22.75;;;7.40;;
64387;SDS011;50709;52.648;4.764;2023-02-17T07:06:42;29.38;;;11.93;;
64387;SDS011;50709;52.648;4.764;2023-02-17T07:09:08;21.55;;;11.15;;
64387;SDS011;50709;52.648;4.764;2023-02-17T07:11:37;22.52;;;9.50;;
64387;SDS011;50709;52.648;4.764;2023-02-17T07:14:02;25.77;;;7.18;;
64387;SDS011;50709;52.648;4.764;2023-02-17T07:16:28;18.52;;;6.70;;
64387;SDS011;50709;52.648;4.764;2023-02-17T07:18:54;18.08;;;6.95;;
64387;SDS011;50709;52.648;4.764;2023-02-17T07:21:19;19.60;;;6.78;;
64387;SDS011;50709;52.648;4.764;2023-02-17T07:23:45;19.75;;;6.75;;
64387;SDS011;50709;52.648;4.764;2023-02-17T07:26:10;19.98;;;9.85;;
64387;SDS011;50709;52.648;4.764;2023-02-17T07:28:36;25.35;;;11.15;;
64387;SDS011;50709;52.648;4.764;2023-02-17T07:31:06;16.17;;;6.53;;
64387;SDS011;50709;52.648;4.764;2023-02-17T07:33:34;23.65;;;7.88;;
64387;SDS011;50709;52.648;4.764;2023-02-17T07:36:04;16.55;;;6.47;;
64387;SDS011;50709;52.648;4.764;2023-02-17T07:38:33;14.55;;;6.03;;
64387;SDS011;50709;52.648;4.764;2023-02-17T07:41:03;10.77;;;4.53;;
64387;SDS011;50709;52.648;4.764;2023-02-17T07:45:57;15.25;;;6.97;;
64387;SDS011;50709;52.648;4.764;2023-02-17T07:48:23;20.27;;;6.97;;
64387;SDS011;50709;52.648;4.764;2023-02-17T07:50:48;16.30;;;5.95;;
64387;SDS011;50709;52.648;4.764;2023-02-17T07:53:14;15.45;;;6.38;;
64387;SDS011;50709;52.648;4.764;2023-02-17T07:55:39;17.63;;;6.68;;
64387;SDS011;50709;52.648;4.764;2023-02-17T07:58:05;17.67;;;8.30;;
64387;SDS011;50709;52.648;4.764;2023-02-17T08:00:30;17.77;;;6.93;;
64387;SDS011;50709;52.648;4.764;2023-02-17T08:02:55;17.92;;;7.25;;
64387;SDS011;50709;52.648;4.764;2023-02-17T08:05:21;19.10;;;10.30;;
64387;SDS011;50709;52.648;4.764;2023-02-17T08:07:46;21.25;;;7.32;;
64387;SDS011;50709;52.648;4.764;2023-02-17T08:10:12;13.68;;;4.80;;
64387;SDS011;50709;52.648;4.764;2023-02-17T08:12:56;14.80;;;5.55;;
64387;SDS011;50709;52.648;4.764;2023-02-17T08:15:40;18.98;;;6.90;;
64387;SDS011;50709;52.648;4.764;2023-02-17T08:18:05;14.23;;;6.45;;
64387;SDS011;50709;52.648;4.764;2023-02-17T08:20:31;8.43;;;4.93;;
64387;SDS011;50709;52.648;4.764;2023-02-17T08:22:56;13.35;;;4.95;;
64387;SDS011;50709;52.648;4.764;2023-02-17T08:25:22;16.58;;;7.07;;
64387;SDS011;50709;52.648;4.764;2023-02-17T08:27:47;14.63;;;6.13;;
64387;SDS011;50709;52.648;4.764;2023-02-17T08:30:12;15.55;;;5.82;;
64387;SDS011;50709;52.648;4.764;2023-02-17T08:32:38;17.00;;;6.20;;
64387;SDS011;50709;52.648;4.764;2023-02-17T08:35:04;9.38;;;4.70;;
64387;SDS011;50709;52.648;4.764;2023-02-17T08:37:30;12.90;;;4.90;;
64387;SDS011;50709;52.648;4.764;2023-02-17T08:39:56;18.17;;;11.70;;
64387;SDS011;50709;52.648;4.764;2023-02-17T08:42:23;15.05;;;6.45;;
64387;SDS011;50709;52.648;4.764;2023-02-17T08:44:49;17.55;;;7.00;;
64387;SDS011;50709;52.648;4.764;2023-02-17T08:47:15;12.55;;;5.55;;
64387;SDS011;50709;52.648;4.764;2023-02-17T08:49:40;14.57;;;6.55;;
64387;SDS011;50709;52.648;4.764;2023-02-17T08:52:06;14.15;;;6.43;;
64387;SDS011;50709;52.648;4.764;2023-02-17T08:54:31;13.18;;;5.20;;
64387;SDS011;50709;52.648;4.764;2023-02-17T08:56:57;15.05;;;6.13;;
64387;SDS011;50709;52.648;4.764;2023-02-17T08:59:23;10.02;;;3.78;;
64387;SDS011;50709;52.648;4.764;2023-02-17T09:01:48;11.35;;;4.32;;
64387;SDS011;50709;52.648;4.764;2023-02-17T09:04:14;19.15;;;6.22;;
64387;SDS011;50709;52.648;4.764;2023-02-17T09:06:42;14.52;;;6.00;;
64387;SDS011;50709;52.648;4.764;2023-02-17T09:09:20;18.08;;;5.63;;
64387;SDS011;50709;52.648;4.764;2023-02-17T09:11:50;16.38;;;6.07;;
64387;SDS011;50709;52.648;4.764;2023-02-17T09:14:17;13.18;;;5.05;;
64387;SDS011;50709;52.648;4.764;2023-02-17T09:16:43;14.75;;;6.03;;
64387;SDS011;50709;52.648;4.764;2023-02-17T09:19:08;13.50;;;5.25;;
64387;SDS011;50709;52.648;4.764;2023-02-17T09:21:34;10.00;;;3.67;;
64387;SDS011;50709;52.648;4.764;2023-02-17T09:23:59;12.18;;;5.45;;
64387;SDS011;50709;52.648;4.764;2023-02-17T09:26:24;18.70;;;6.18;;
64387;SDS011;50709;52.648;4.764;2023-02-17T09:28:50;11.65;;;4.18;;
64387;SDS011;50709;52.648;4.764;2023-02-17T09:31:22;12.23;;;5.05;;
64387;SDS011;50709;52.648;4.764;2023-02-17T09:33:49;20.50;;;10.73;;
64387;SDS011;50709;52.648;4.764;2023-02-17T09:36:16;18.75;;;5.05;;
64387;SDS011;50709;52.648;4.764;2023-02-17T09:38:44;12.32;;;4.32;;
64387;SDS011;50709;52.648;4.764;2023-02-17T09:43:57;12.82;;;5.30;;
64387;SDS011;50709;52.648;4.764;2023-02-17T09:46:34;10.95;;;6.43;;
64387;SDS011;50709;52.648;4.764;2023-02-17T09:49:14;10.43;;;4.07;;
64387;SDS011;50709;52.648;4.764;2023-02-17T09:54:30;18.23;;;5.43;;
64387;SDS011;50709;52.648;4.764;2023-02-17T09:57:00;15.68;;;4.72;;
64387;SDS011;50709;52.648;4.764;2023-02-17T09:59:30;10.60;;;4.25;;
64387;SDS011;50709;52.648;4.764;2023-02-17T10:02:04;13.57;;;5.50;;
64387;SDS011;50709;52.648;4.764;2023-02-17T10:04:40;8.25;;;4.30;;
64387;SDS011;50709;52.648;4.764;2023-02-17T10:07:17;12.25;;;5.05;;
64387;SDS011;50709;52.648;4.764;2023-02-17T10:09:53;13.23;;;4.45;;
64387;SDS011;50709;52.648;4.764;2023-02-17T10:12:26;12.57;;;4.55;;
64387;SDS011;50709;52.648;4.764;2023-02-17T10:14:58;15.50;;;5.00;;
64387;SDS011;50709;52.648;4.764;2023-02-17T10:20:21;11.05;;;3.63;;
64387;SDS011;50709;52.648;4.764;2023-02-17T10:22:57;7.90;;;4.28;;
64387;SDS011;50709;52.648;4.764;2023-02-17T10:25:36;9.02;;;3.72;;
64387;SDS011;50709;52.648;4.764;2023-02-17T10:30:53;14.35;;;4.00;;
64387;SDS011;50709;52.648;4.764;2023-02-17T10:36:26;9.48;;;3.65;;
64387;SDS011;50709;52.648;4.764;2023-02-17T10:41:39;13.93;;;4.30;;
64387;SDS011;50709;52.648;4.764;2023-02-17T10:44:08;7.40;;;3.33;;
64387;SDS011;50709;52.648;4.764;2023-02-17T10:46:40;10.20;;;4.88;;
64387;SDS011;50709;52.648;4.764;2023-02-17T10:49:09;15.50;;;4.55;;
64387;SDS011;50709;52.648;4.764;2023-02-17T10:51:54;8.90;;;3.97;;
64387;SDS011;50709;52.648;4.764;2023-02-17T10:54:29;12.02;;;3.95;;
64387;SDS011;50709;52.648;4.764;2023-02-17T10:57:00;11.77;;;4.07;;
64387;SDS011;50709;52.648;4.764;2023-02-17T10:59:30;15.50;;;4.18;;
64387;SDS011;50709;52.648;4.764;2023-02-17T11:04:50;10.57;;;3.10;;
64387;SDS011;50709;52.648;4.764;2023-02-17T11:07:21;8.05;;;3.00;;
64387;SDS011;50709;52.648;4.764;2023-02-17T11:09:52;13.57;;;3.30;;
64387;SDS011;50709;52.648;4.764;2023-02-17T11:12:26;11.00;;;2.83;;
64387;SDS011;50709;52.648;4.764;2023-02-17T11:14:56;10.07;;;3.60;;
64387;SDS011;50709;52.648;4.764;2023-02-17T11:17:26;9.10;;;3.92;;
64387;SDS011;50709;52.648;4.764;2023-02-17T11:19:55;14.38;;;4.78;;
64387;SDS011;50709;52.648;4.764;2023-02-17T11:22:35;10.82;;;4.28;;
64387;SDS011;50709;52.648;4.764;2023-02-17T11:25:27;16.00;;;4.43;;
64387;SDS011;50709;52.648;4.764;2023-02-17T11:27:59;10.48;;;3.70;;
64387;SDS011;50709;52.648;4.764;2023-02-17T11:30:26;12.77;;;4.30;;
64387;SDS011;50709;52.648;4.764;2023-02-17T11:33:09;13.88;;;4.72;;
64387;SDS011;50709;52.648;4.764;2023-02-17T11:35:55;15.15;;;4.70;;
64387;SDS011;50709;52.648;4.764;2023-02-17T11:38:23;12.68;;;3.85;;
64387;SDS011;50709;52.648;4.764;2023-02-17T11:40:55;16.90;;;4.35;;
64387;SDS011;50709;52.648;4.764;2023-02-17T11:43:25;18.65;;;4.28;;
64387;SDS011;50709;52.648;4.764;2023-02-17T11:45:59;13.68;;;3.90;;
64387;SDS011;50709;52.648;4.764;2023-02-17T11:51:12;11.40;;;3.67;;
64387;SDS011;50709;52.648;4.764;2023-02-17T11:53:47;12.27;;;3.92;;
64387;SDS011;50709;52.648;4.764;2023-02-17T11:56:36;19.30;;;5.13;;
64387;SDS011;50709;52.648;4.764;2023-02-17T11:59:14;12.98;;;3.50;;
64387;SDS011;50709;52.648;4.764;2023-02-17T12:18:58;16.23;;;4.50;;
64387;SDS011;50709;52.648;4.764;2023-02-17T12:22:01;22.23;;;4.78;;
64387;SDS011;50709;52.648;4.764;2023-02-17T12:34:43;17.77;;;4.78;;
64387;SDS011;50709;52.648;4.764;2023-02-17T12:37:30;13.45;;;3.33;;
64387;SDS011;50709;52.648;4.764;2023-02-17T12:40:02;13.07;;;3.17;;
64387;SDS011;50709;52.648;4.764;2023-02-17T12:42:36;8.48;;;2.83;;
64387;SDS011;50709;52.648;4.764;2023-02-17T12:45:18;10.43;;;2.85;;
64387;SDS011;50709;52.648;4.764;2023-02-17T12:47:49;12.38;;;3.20;;
64387;SDS011;50709;52.648;4.764;2023-02-17T12:53:02;15.07;;;3.20;;
64387;SDS011;50709;52.648;4.764;2023-02-17T12:55:45;16.88;;;3.33;;
64387;SDS011;50709;52.648;4.764;2023-02-17T12:58:20;10.10;;;3.45;;
64387;SDS011;50709;52.648;4.764;2023-02-17T13:01:06;14.13;;;3.55;;
64387;SDS011;50709;52.648;4.764;2023-02-17T13:03:39;10.90;;;2.78;;
64387;SDS011;50709;52.648;4.764;2023-02-17T13:06:07;13.05;;;4.35;;
64387;SDS011;50709;52.648;4.764;2023-02-17T13:08:49;8.35;;;4.50;;
64387;SDS011;50709;52.648;4.764;2023-02-17T13:11:30;9.27;;;3.13;;
64387;SDS011;50709;52.648;4.764;2023-02-17T13:14:08;12.65;;;3.15;;
64387;SDS011;50709;52.648;4.764;2023-02-17T13:16:54;14.95;;;4.05;;
64387;SDS011;50709;52.648;4.764;2023-02-17T13:19:29;12.30;;;4.05;;
64387;SDS011;50709;52.648;4.764;2023-02-17T13:21:59;13.55;;;4.90;;
64387;SDS011;50709;52.648;4.764;2023-02-17T13:24:30;9.68;;;2.88;;
64387;SDS011;50709;52.648;4.764;2023-02-17T13:27:11;10.30;;;3.10;;
64387;SDS011;50709;52.648;4.764;2023-02-17T13:29:45;13.05;;;3.30;;
64387;SDS011;50709;52.648;4.764;2023-02-17T13:32:25;10.60;;;2.85;;
64387;SDS011;50709;52.648;4.764;2023-02-17T13:37:48;17.35;;;4.53;;
64387;SDS011;50709;52.648;4.764;2023-02-17T13:42:48;11.43;;;3.85;;
64387;SDS011;50709;52.648;4.764;2023-02-17T13:45:28;19.10;;;4.55;;
64387;SDS011;50709;52.648;4.764;2023-02-17T13:47:58;10.68;;;3.22;;
64387;SDS011;50709;52.648;4.764;2023-02-17T13:50:36;11.20;;;3.42;;
64387;SDS011;50709;52.648;4.764;2023-02-17T13:56:05;6.85;;;2.70;;
64387;SDS011;50709;52.648;4.764;2023-02-17T13:58:36;6.03;;;2.67;;
64387;SDS011;50709;52.648;4.764;2023-02-17T14:01:04;11.75;;;3.30;;
64387;SDS011;50709;52.648;4.764;2023-02-17T14:06:03;14.57;;;3.25;;
64387;SDS011;50709;52.648;4.764;2023-02-17T14:08:33;13.50;;;3.58;;
64387;SDS011;50709;52.648;4.764;2023-02-17T14:13:37;16.70;;;5.03;;
64387;SDS011;50709;52.648;4.764;2023-02-17T14:16:05;13.25;;;3.38;;
64387;SDS011;50709;52.648;4.764;2023-02-17T14:18:35;14.38;;;2.95;;
64387;SDS011;50709;52.648;4.764;2023-02-17T14:21:22;16.58;;;3.60;;
64387;SDS011;50709;52.648;4.764;2023-02-17T14:23:51;10.32;;;2.88;;
64387;SDS011;50709;52.648;4.764;2023-02-17T14:29:13;9.23;;;3.30;;
64387;SDS011;50709;52.648;4.764;2023-02-17T14:31:43;16.33;;;3.47;;
64387;SDS011;50709;52.648;4.764;2023-02-17T14:34:24;14.98;;;3.35;;
64387;SDS011;50709;52.648;4.764;2023-02-17T14:36:51;6.32;;;2.13;;
64387;SDS011;50709;52.648;4.764;2023-02-17T14:39:17;11.82;;;2.80;;
64387;SDS011;50709;52.648;4.764;2023-02-17T14:41:42;9.15;;;2.80;;
64387;SDS011;50709;52.648;4.764;2023-02-17T14:44:08;12.15;;;3.28;;
64387;SDS011;50709;52.648;4.764;2023-02-17T14:46:34;17.13;;;4.20;;
64387;SDS011;50709;52.648;4.764;2023-02-17T14:49:00;7.70;;;2.20;;
64387;SDS011;50709;52.648;4.764;2023-02-17T14:51:33;8.80;;;2.38;;
64387;SDS011;50709;52.648;4.764;2023-02-17T14:54:13;16.38;;;3.33;;
64387;SDS011;50709;52.648;4.764;2023-02-17T14:56:42;9.25;;;2.60;;
64387;SDS011;50709;52.648;4.764;2023-02-17T14:59:10;10.57;;;2.55;;
64387;SDS011;50709;52.648;4.764;2023-02-17T15:01:36;8.15;;;3.35;;
64387;SDS011;50709;52.648;4.764;2023-02-17T15:04:01;11.25;;;3.53;;
64387;SDS011;50709;52.648;4.764;2023-02-17T15:06:32;12.48;;;2.97;;
64387;SDS011;50709;52.648;4.764;2023-02-17T15:09:03;10.68;;;2.50;;
64387;SDS011;50709;52.648;4.764;2023-02-17T15:11:33;11.30;;;3.10;;
64387;SDS011;50709;52.648;4.764;2023-02-17T15:14:04;6.78;;;2.45;;
64387;SDS011;50709;52.648;4.764;2023-02-17T15:16:30;11.43;;;2.75;;
64387;SDS011;50709;52.648;4.764;2023-02-17T15:18:55;7.13;;;2.20;;
64387;SDS011;50709;52.648;4.764;2023-02-17T15:26:21;11.43;;;2.92;;
64387;SDS011;50709;52.648;4.764;2023-02-17T15:28:46;11.15;;;3.13;;
64387;SDS011;50709;52.648;4.764;2023-02-17T15:31:12;9.77;;;2.80;;
64387;SDS011;50709;52.648;4.764;2023-02-17T15:33:40;10.65;;;3.22;;
64387;SDS011;50709;52.648;4.764;2023-02-17T15:36:06;9.52;;;2.35;;
64387;SDS011;50709;52.648;4.764;2023-02-17T15:38:43;12.70;;;3.45;;
64387;SDS011;50709;52.648;4.764;2023-02-17T15:41:12;10.52;;;2.92;;
64387;SDS011;50709;52.648;4.764;2023-02-17T15:43:40;16.33;;;3.43;;
64387;SDS011;50709;52.648;4.764;2023-02-17T15:46:09;9.82;;;3.20;;
64387;SDS011;50709;52.648;4.764;2023-02-17T15:48:38;9.10;;;2.55;;
64387;SDS011;50709;52.648;4.764;2023-02-17T15:51:04;10.00;;;2.80;;
64387;SDS011;50709;52.648;4.764;2023-02-17T15:53:29;9.82;;;2.95;;
64387;SDS011;50709;52.648;4.764;2023-02-17T15:55:57;11.30;;;3.15;;
64387;SDS011;50709;52.648;4.764;2023-02-17T15:58:25;11.25;;;2.83;;
64387;SDS011;50709;52.648;4.764;2023-02-17T16:00:52;9.10;;;2.67;;
64387;SDS011;50709;52.648;4.764;2023-02-17T16:03:24;11.73;;;2.63;;
64387;SDS011;50709;52.648;4.764;2023-02-17T16:05:52;8.38;;;2.55;;
64387;SDS011;50709;52.648;4.764;2023-02-17T16:08:18;7.38;;;2.72;;
64387;SDS011;50709;52.648;4.764;2023-02-17T16:10:43;9.93;;;2.75;;
64387;SDS011;50709;52.648;4.764;2023-02-17T16:13:11;12.70;;;2.83;;
64387;SDS011;50709;52.648;4.764;2023-02-17T16:15:39;9.73;;;2.58;;
64387;SDS011;50709;52.648;4.764;2023-02-17T16:18:19;12.55;;;3.10;;
64387;SDS011;50709;52.648;4.764;2023-02-17T16:20:46;9.90;;;3.10;;
64387;SDS011;50709;52.648;4.764;2023-02-17T16:23:12;11.23;;;2.92;;
64387;SDS011;50709;52.648;4.764;2023-02-17T16:25:38;9.60;;;2.40;;
64387;SDS011;50709;52.648;4.764;2023-02-17T16:28:07;10.00;;;3.05;;